createdAt,value
2016-09-09T00:00:32.343Z,48.95
2016-09-09T00:01:32.403Z,48.95
2016-09-09T00:02:32.358Z,48.95
2016-09-09T00:03:32.054Z,48.66
2016-09-09T00:04:32.373Z,48.95
2016-09-09T00:05:32.070Z,48.76
2016-09-09T00:06:32.391Z,48.76
2016-09-09T00:07:32.086Z,48.57
2016-09-09T00:08:32.456Z,48.66
2016-09-09T00:09:32.101Z,48.85
2016-09-09T00:10:32.422Z,48.47
2016-09-09T00:11:32.116Z,48.85
2016-09-09T00:12:32.446Z,48.85
2016-09-09T00:13:32.134Z,48.76
2016-09-09T00:14:32.454Z,48.76
2016-09-09T00:15:32.149Z,48.85
2016-09-09T00:16:32.156Z,48.27
2016-09-09T00:17:32.477Z,48.66
2016-09-09T00:18:32.484Z,48.76
2016-09-09T00:19:32.180Z,48.57
2016-09-09T00:20:32.500Z,48.57
2016-09-09T00:21:32.195Z,48.37
2016-09-09T00:22:32.514Z,48.66
2016-09-09T00:23:33.625Z,48.66
2016-09-09T00:24:32.225Z,48.66
2016-09-09T00:25:32.227Z,48.37
2016-09-09T00:26:32.235Z,48.76
2016-09-09T00:27:32.568Z,48.57
2016-09-09T00:28:32.250Z,48.57
2016-09-09T00:29:32.569Z,48.66
2016-09-09T00:30:32.578Z,48.57
2016-09-09T00:31:32.588Z,48.57
2016-09-09T00:32:32.593Z,48.47
2016-09-09T00:33:32.601Z,48.66
2016-09-09T00:34:33.359Z,48.47
2016-09-09T00:35:32.621Z,48.57
2016-09-09T00:36:32.313Z,48.66
2016-09-09T00:37:32.633Z,48.47
2016-09-09T00:38:32.640Z,48.37
2016-09-09T00:39:32.647Z,48.57
2016-09-09T00:40:32.657Z,48.66
2016-09-09T00:41:32.401Z,48.57
2016-09-09T00:42:32.411Z,48.47
2016-09-09T00:43:32.417Z,48.37
2016-09-09T00:44:32.689Z,48.47
2016-09-09T00:45:33.097Z,48.47
2016-09-09T00:46:33.304Z,48.66
2016-09-09T00:47:32.711Z,48.27
2016-09-09T00:48:32.718Z,48.66
2016-09-09T00:49:32.414Z,48.57
2016-09-09T00:50:32.421Z,48.57
2016-09-09T00:51:32.742Z,48.27
2016-09-09T00:52:32.761Z,48.57
2016-09-09T00:53:32.446Z,48.37
2016-09-09T00:54:33.566Z,48.27
2016-09-09T00:55:32.458Z,48.18
2016-09-09T00:56:32.780Z,48.08
2016-09-09T00:57:32.477Z,48.37
2016-09-09T00:58:32.797Z,48.64
2016-09-09T00:59:32.802Z,48.66
2016-09-09T01:00:32.815Z,48.27
2016-09-09T01:01:32.821Z,48.47
2016-09-09T01:02:32.514Z,48.27
2016-09-09T01:03:32.525Z,48.27
2016-09-09T01:04:32.532Z,48.47
2016-09-09T01:05:33.238Z,48.37
2016-09-09T01:06:32.546Z,48.66
2016-09-09T01:07:32.866Z,48.08
2016-09-09T01:08:32.562Z,48.37
2016-09-09T01:09:32.570Z,48.18
2016-09-09T01:10:32.580Z,48.18
2016-09-09T01:11:32.586Z,48.47
2016-09-09T01:12:32.602Z,48.27
2016-09-09T01:13:32.602Z,48.18
2016-09-09T01:14:32.924Z,48.27
2016-09-09T01:15:32.616Z,48.27
2016-09-09T01:16:32.826Z,48.27
2016-09-09T01:17:32.640Z,48.08
2016-09-09T01:18:32.658Z,48.47
2016-09-09T01:19:32.649Z,48.27
2016-09-09T01:20:32.660Z,48.18
2016-09-09T01:21:32.665Z,48.27
2016-09-09T01:22:32.993Z,48.08
2016-09-09T01:23:32.683Z,48.37
2016-09-09T01:24:33.004Z,48.27
2016-09-09T01:25:32.696Z,48.25
2016-09-09T01:26:33.018Z,48.37
2016-09-09T01:27:33.026Z,48.44
2016-09-09T01:28:33.034Z,48.18
2016-09-09T01:29:32.732Z,48.18
2016-09-09T01:30:32.738Z,48.47
2016-09-09T01:31:33.056Z,48.06
2016-09-09T01:32:32.754Z,48.18
2016-09-09T01:33:33.127Z,48.37
2016-09-09T01:34:33.080Z,48.18
2016-09-09T01:35:32.778Z,48.15
2016-09-09T01:36:33.096Z,48.27
2016-09-09T01:37:32.799Z,48.18
2016-09-09T01:38:34.034Z,48.47
2016-09-09T01:39:33.120Z,48.27
2016-09-09T01:40:33.781Z,48.15
2016-09-09T01:41:33.135Z,48.18
2016-09-09T01:42:34.197Z,48.27
2016-09-09T01:43:32.839Z,48.15
2016-09-09T01:44:32.847Z,48.25
2016-09-09T01:45:33.167Z,48.27
2016-09-09T01:46:33.176Z,48.37
2016-09-09T01:47:32.870Z,48.27
2016-09-09T01:48:33.190Z,48.27
2016-09-09T01:49:34.199Z,48.44
2016-09-09T01:50:32.893Z,48.25
2016-09-09T01:51:33.464Z,48.47
2016-09-09T01:52:33.221Z,48.25
2016-09-09T01:53:33.229Z,48.25
2016-09-09T01:54:33.236Z,48.44
2016-09-09T01:55:32.933Z,48.25
2016-09-09T01:56:32.938Z,48.35
2016-09-09T01:57:33.260Z,48.25
2016-09-09T01:58:33.267Z,48.66
2016-09-09T01:59:33.275Z,48.54
2016-09-09T02:00:33.717Z,48.64
2016-09-09T02:01:32.983Z,48.64
2016-09-09T02:02:33.285Z,48.35
2016-09-09T02:03:33.304Z,48.44
2016-09-09T02:04:33.001Z,48.27
2016-09-09T02:05:33.320Z,48.44
2016-09-09T02:06:33.328Z,48.66
2016-09-09T02:07:33.334Z,48.66
2016-09-09T02:08:33.031Z,48.54
2016-09-09T02:09:33.354Z,48.37
2016-09-09T02:10:33.047Z,48.35
2016-09-09T02:11:33.816Z,48.44
2016-09-09T02:12:33.380Z,48.27
2016-09-09T02:13:33.384Z,48.44
2016-09-09T02:14:33.396Z,48.47
2016-09-09T02:15:33.085Z,48.15
2016-09-09T02:16:33.407Z,47.96
2016-09-09T02:17:33.102Z,48.35
2016-09-09T02:18:33.422Z,48.15
2016-09-09T02:19:33.118Z,48.35
2016-09-09T02:20:33.442Z,48.15
2016-09-09T02:21:33.133Z,48.57
2016-09-09T02:22:33.755Z,48.25
2016-09-09T02:23:33.149Z,48.47
2016-09-09T02:24:33.469Z,48.44
2016-09-09T02:25:33.484Z,48.35
2016-09-09T02:26:33.486Z,48.15
2016-09-09T02:27:33.180Z,48.35
2016-09-09T02:28:33.188Z,48.66
2016-09-09T02:29:33.196Z,48.25
2016-09-09T02:30:33.203Z,48.54
2016-09-09T02:31:33.211Z,48.18
2016-09-09T02:32:33.220Z,48.18
2016-09-09T02:33:33.545Z,48.25
2016-09-09T02:34:33.236Z,48.25
2016-09-09T02:35:33.608Z,48.15
2016-09-09T02:36:33.564Z,48.44
2016-09-09T02:37:33.571Z,48.25
2016-09-09T02:38:33.634Z,48.25
2016-09-09T02:39:33.587Z,48.25
2016-09-09T02:40:33.644Z,48.18
2016-09-09T02:41:33.603Z,48.64
2016-09-09T02:42:33.300Z,48.54
2016-09-09T02:43:33.620Z,48.27
2016-09-09T02:44:33.627Z,48.15
2016-09-09T02:45:33.691Z,48.25
2016-09-09T02:46:33.647Z,48.25
2016-09-09T02:47:33.343Z,47.96
2016-09-09T02:48:33.657Z,48.54
2016-09-09T02:49:33.666Z,48.15
2016-09-09T02:50:33.361Z,48.54
2016-09-09T02:51:33.732Z,48.35
2016-09-09T02:52:33.689Z,48.44
2016-09-09T02:53:33.385Z,48.15
2016-09-09T02:54:33.704Z,48.54
2016-09-09T02:55:33.714Z,48.54
2016-09-09T02:56:33.719Z,48.06
2016-09-09T02:57:34.836Z,48.25
2016-09-09T02:58:33.734Z,48.64
2016-09-09T02:59:33.744Z,48.06
2016-09-09T03:00:33.779Z,48.35
2016-09-09T03:01:33.448Z,48.06
2016-09-09T03:02:33.763Z,48.64
2016-09-09T03:03:33.462Z,48.54
2016-09-09T03:04:33.467Z,48.54
2016-09-09T03:05:33.477Z,48.54
2016-09-09T03:06:33.794Z,48.15
2016-09-09T03:07:33.805Z,48.15
2016-09-09T03:08:34.450Z,48.25
2016-09-09T03:09:33.818Z,48.06
2016-09-09T03:10:33.516Z,47.96
2016-09-09T03:11:33.835Z,48.44
2016-09-09T03:12:33.531Z,48.25
2016-09-09T03:13:33.850Z,48.54
2016-09-09T03:14:33.546Z,47.96
2016-09-09T03:15:33.552Z,48.15
2016-09-09T03:16:33.875Z,48.64
2016-09-09T03:17:33.568Z,47.96
2016-09-09T03:18:33.575Z,48.44
2016-09-09T03:19:34.550Z,48.15
2016-09-09T03:20:33.906Z,47.86
2016-09-09T03:21:33.912Z,48.25
2016-09-09T03:22:33.609Z,48.25
2016-09-09T03:23:33.927Z,48.06
2016-09-09T03:24:33.624Z,48.74
2016-09-09T03:25:33.944Z,48.15
2016-09-09T03:26:33.640Z,48.54
2016-09-09T03:27:33.956Z,48.54
2016-09-09T03:28:33.656Z,48.15
2016-09-09T03:29:33.662Z,47.96
2016-09-09T03:30:34.485Z,48.15
2016-09-09T03:31:33.678Z,48.35
2016-09-09T03:32:34.005Z,48.44
2016-09-09T03:33:34.008Z,48.44
2016-09-09T03:34:34.015Z,48.35
2016-09-09T03:35:33.708Z,48.25
2016-09-09T03:36:34.029Z,48.15
2016-09-09T03:37:33.731Z,48.64
2016-09-09T03:38:34.093Z,48.54
2016-09-09T03:39:35.152Z,48.54
2016-09-09T03:40:33.795Z,48.44
2016-09-09T03:41:34.156Z,48.44
2016-09-09T03:42:34.075Z,48.54
2016-09-09T03:43:34.084Z,48.44
2016-09-09T03:44:34.092Z,48.44
2016-09-09T03:45:33.834Z,48.54
2016-09-09T03:46:33.799Z,48.25
2016-09-09T03:47:34.111Z,48.44
2016-09-09T03:48:33.810Z,48.64
2016-09-09T03:49:34.127Z,48.15
2016-09-09T03:50:35.191Z,48.54
2016-09-09T03:51:34.142Z,48.44
2016-09-09T03:52:34.303Z,48.15
2016-09-09T03:53:34.161Z,48.54
2016-09-09T03:54:34.166Z,47.86
2016-09-09T03:55:33.878Z,48.44
2016-09-09T03:56:34.184Z,48.44
2016-09-09T03:57:34.190Z,48.54
2016-09-09T03:58:34.198Z,48.54
2016-09-09T03:59:33.894Z,47.86
2016-09-09T04:00:34.212Z,48.54
2016-09-09T04:01:35.010Z,48.25
2016-09-09T04:02:34.227Z,48.54
2016-09-09T04:03:33.931Z,48.15
2016-09-09T04:04:34.242Z,48.06
2016-09-09T04:05:33.941Z,47.96
2016-09-09T04:06:33.946Z,48.06
2016-09-09T04:07:34.270Z,47.86
2016-09-09T04:08:34.274Z,48.25
2016-09-09T04:09:34.285Z,48.54
2016-09-09T04:10:33.977Z,48.15
2016-09-09T04:11:33.986Z,48.25
2016-09-09T04:12:33.992Z,48.44
2016-09-09T04:13:34.605Z,47.86
2016-09-09T04:14:34.371Z,48.25
2016-09-09T04:15:34.326Z,48.06
2016-09-09T04:16:34.029Z,48.06
2016-09-09T04:17:34.034Z,48.44
2016-09-09T04:18:34.353Z,48.06
2016-09-09T04:19:34.359Z,48.15
2016-09-09T04:20:34.369Z,48.35
2016-09-09T04:21:34.380Z,48.64
2016-09-09T04:22:34.383Z,48.64
2016-09-09T04:23:35.142Z,48.54
2016-09-09T04:24:34.399Z,48.06
2016-09-09T04:25:34.407Z,47.96
2016-09-09T04:26:34.427Z,48.54
2016-09-09T04:27:34.423Z,47.86
2016-09-09T04:28:34.118Z,47.77
2016-09-09T04:29:34.437Z,48.44
2016-09-09T04:30:34.453Z,48.44
2016-09-09T04:31:34.460Z,47.77
2016-09-09T04:32:34.459Z,48.35
2016-09-09T04:33:34.469Z,48.44
2016-09-09T04:34:34.628Z,48.06
2016-09-09T04:35:34.171Z,48.35
2016-09-09T04:36:34.180Z,48.25
2016-09-09T04:37:34.499Z,48.25
2016-09-09T04:38:34.295Z,48.25
2016-09-09T04:39:34.516Z,48.15
2016-09-09T04:40:34.522Z,48.35
2016-09-09T04:41:34.530Z,48.25
2016-09-09T04:42:34.538Z,48.25
2016-09-09T04:43:34.235Z,48.35
2016-09-09T04:44:34.554Z,47.86
2016-09-09T04:45:34.562Z,47.96
2016-09-09T04:46:34.571Z,48.35
2016-09-09T04:47:34.316Z,48.44
2016-09-09T04:48:34.585Z,48.35
2016-09-09T04:49:34.278Z,48.44
2016-09-09T04:50:34.601Z,47.77
2016-09-09T04:51:34.607Z,48.44
2016-09-09T04:52:34.614Z,47.67
2016-09-09T04:53:34.359Z,47.96
2016-09-09T04:54:34.630Z,48.44
2016-09-09T04:55:34.639Z,48.06
2016-09-09T04:56:34.646Z,48.35
2016-09-09T04:57:34.339Z,48.35
2016-09-09T04:58:35.639Z,48.44
2016-09-09T04:59:34.668Z,47.77
2016-09-09T05:00:34.363Z,47.96
2016-09-09T05:01:34.684Z,47.77
2016-09-09T05:02:34.379Z,47.28
2016-09-09T05:03:34.386Z,48.06
2016-09-09T05:04:34.708Z,47.86
2016-09-09T05:05:34.716Z,47.57
2016-09-09T05:06:34.721Z,47.67
2016-09-09T05:07:34.417Z,47.67
2016-09-09T05:08:34.432Z,48.06
2016-09-09T05:09:34.433Z,47.67
2016-09-09T05:10:34.441Z,47.96
2016-09-09T05:11:34.813Z,48.06
2016-09-09T05:12:34.770Z,47.28
2016-09-09T05:13:34.463Z,47.77
2016-09-09T05:14:34.782Z,47.67
2016-09-09T05:15:34.790Z,47.96
2016-09-09T05:16:34.798Z,47.96
2016-09-09T05:17:34.806Z,47.77
2016-09-09T05:18:34.816Z,47.38
2016-09-09T05:19:34.819Z,47.67
2016-09-09T05:20:35.618Z,47.67
2016-09-09T05:21:34.523Z,47.67
2016-09-09T05:22:34.845Z,47.28
2016-09-09T05:23:34.850Z,47.77
2016-09-09T05:24:34.547Z,47.77
2016-09-09T05:25:34.555Z,47.77
2016-09-09T05:26:34.875Z,47.28
2016-09-09T05:27:34.885Z,47.86
2016-09-09T05:28:34.575Z,47.38
2016-09-09T05:29:34.896Z,48.06
2016-09-09T05:30:34.594Z,48.06
2016-09-09T05:31:35.867Z,48.15
2016-09-09T05:32:34.607Z,47.28
2016-09-09T05:33:34.618Z,47.77
2016-09-09T05:34:34.934Z,47.57
2016-09-09T05:35:34.944Z,47.28
2016-09-09T05:36:34.952Z,47.77
2016-09-09T05:37:34.960Z,47.09
2016-09-09T05:38:34.655Z,47.38
2016-09-09T05:39:34.975Z,48.15
2016-09-09T05:40:34.676Z,47.38
2016-09-09T05:41:35.043Z,47.19
2016-09-09T05:42:35.187Z,47.38
2016-09-09T05:43:49.577Z,48.06
2016-09-09T05:44:35.019Z,47.86
2016-09-09T05:45:35.021Z,47.57
2016-09-09T05:46:34.715Z,47.57
2016-09-09T05:47:35.034Z,47.38
2016-09-09T05:48:35.050Z,48.06
2016-09-09T05:49:35.050Z,47.47
2016-09-09T05:50:35.058Z,47.38
2016-09-09T05:51:34.816Z,47.57
2016-09-09T05:52:35.126Z,47.38
2016-09-09T05:53:35.384Z,47.47
2016-09-09T05:54:35.089Z,47.57
2016-09-09T05:55:35.099Z,47.67
2016-09-09T05:56:34.793Z,47.57
2016-09-09T05:57:34.800Z,47.28
2016-09-09T05:58:35.123Z,47.67
2016-09-09T05:59:34.819Z,47.57
2016-09-09T06:00:35.141Z,47.47
2016-09-09T06:01:35.142Z,47.57
2016-09-09T06:02:35.953Z,47.57
2016-09-09T06:03:34.846Z,46.89
2016-09-09T06:04:35.270Z,47.38
2016-09-09T06:05:35.173Z,47.28
2016-09-09T06:06:35.184Z,47.47
2016-09-09T06:07:35.190Z,47.47
2016-09-09T06:08:35.198Z,47.19
2016-09-09T06:09:35.206Z,47.47
2016-09-09T06:10:35.213Z,47.38
2016-09-09T06:11:35.221Z,47.38
2016-09-09T06:12:35.229Z,47.28
2016-09-09T06:13:36.028Z,47.57
2016-09-09T06:14:34.934Z,47.38
2016-09-09T06:15:34.939Z,47.77
2016-09-09T06:16:35.260Z,47.09
2016-09-09T06:17:34.956Z,47.19
2016-09-09T06:18:35.275Z,47.67
2016-09-09T06:19:35.285Z,47.77
2016-09-09T06:20:35.289Z,47.28
2016-09-09T06:21:34.987Z,47.19
2016-09-09T06:22:34.994Z,47.47
2016-09-09T06:23:35.002Z,47.38
2016-09-09T06:24:35.871Z,47.38
2016-09-09T06:25:35.330Z,47.38
2016-09-09T06:26:35.335Z,47.57
2016-09-09T06:27:35.032Z,47.38
2016-09-09T06:28:35.355Z,47.67
2016-09-09T06:29:35.048Z,47.67
2016-09-09T06:30:35.055Z,47.77
2016-09-09T06:31:35.388Z,47.09
2016-09-09T06:32:35.435Z,47.57
2016-09-09T06:33:35.386Z,47.57
2016-09-09T06:34:35.087Z,47.09
2016-09-09T06:35:35.708Z,47.47
2016-09-09T06:36:35.414Z,47.47
2016-09-09T06:37:35.419Z,47.67
2016-09-09T06:38:35.117Z,47.67
2016-09-09T06:39:35.437Z,47.57
2016-09-09T06:40:35.444Z,47.19
2016-09-09T06:41:35.451Z,47.38
2016-09-09T06:42:35.197Z,47.38
2016-09-09T06:43:50.081Z,47.47
2016-09-09T06:44:35.162Z,47.67
2016-09-09T06:45:35.168Z,47.77
2016-09-09T06:46:35.692Z,47.28
2016-09-09T06:47:35.499Z,47.57
2016-09-09T06:48:35.194Z,47.67
2016-09-09T06:49:35.514Z,47.67
2016-09-09T06:50:35.522Z,47.57
2016-09-09T06:51:35.527Z,47.67
2016-09-09T06:52:35.220Z,47.47
2016-09-09T06:53:35.548Z,47.47
2016-09-09T06:54:35.238Z,47.67
2016-09-09T06:55:35.245Z,47.38
2016-09-09T06:56:35.561Z,47.67
2016-09-09T06:57:35.363Z,47.57
2016-09-09T06:58:35.577Z,47.47
2016-09-09T06:59:35.592Z,47.57
2016-09-09T07:00:35.594Z,47.47
2016-09-09T07:01:35.602Z,48.06
2016-09-09T07:02:35.610Z,47.38
2016-09-09T07:03:35.305Z,47.09
2016-09-09T07:04:35.632Z,47.57
2016-09-09T07:05:35.635Z,47.67
2016-09-09T07:06:35.641Z,47.38
2016-09-09T07:07:35.335Z,47.38
2016-09-09T07:08:35.492Z,47.47
2016-09-09T07:09:35.350Z,47.57
2016-09-09T07:10:35.671Z,47.57
2016-09-09T07:11:35.370Z,46.89
2016-09-09T07:12:35.686Z,47.47
2016-09-09T07:13:35.700Z,47.67
2016-09-09T07:14:35.708Z,47.67
2016-09-09T07:15:35.707Z,47.57
2016-09-09T07:16:35.406Z,47.28
2016-09-09T07:17:35.726Z,47.67
2016-09-09T07:18:35.733Z,47.47
2016-09-09T07:19:35.427Z,47.38
2016-09-09T07:20:35.486Z,47.38
2016-09-09T07:21:36.856Z,47.38
2016-09-09T07:22:35.761Z,47.47
2016-09-09T07:23:35.771Z,47.77
2016-09-09T07:24:35.777Z,47.57
2016-09-09T07:25:35.787Z,47.67
2016-09-09T07:26:35.794Z,48.15
2016-09-09T07:27:35.806Z,47.19
2016-09-09T07:28:35.809Z,47.77
2016-09-09T07:29:35.555Z,47.57
2016-09-09T07:30:35.825Z,48.15
2016-09-09T07:31:35.518Z,48.25
2016-09-09T07:32:35.529Z,47.86
2016-09-09T07:33:35.536Z,48.15
2016-09-09T07:34:35.854Z,48.06
2016-09-09T07:35:35.914Z,48.25
2016-09-09T07:36:35.556Z,48.25
2016-09-09T07:37:35.878Z,48.25
2016-09-09T07:38:35.884Z,48.25
2016-09-09T07:39:35.892Z,48.22
2016-09-09T07:40:35.897Z,48.25
2016-09-09T07:41:35.646Z,48.25
2016-09-09T07:42:35.651Z,48.44
2016-09-09T07:43:36.925Z,48.15
2016-09-09T07:44:35.617Z,48.54
2016-09-09T07:45:35.939Z,48.25
2016-09-09T07:46:35.996Z,48.25
2016-09-09T07:47:35.641Z,48.15
2016-09-09T07:48:35.699Z,48.35
2016-09-09T07:49:35.657Z,48.44
2016-09-09T07:50:35.977Z,48.15
2016-09-09T07:51:35.674Z,48.25
2016-09-09T07:52:36.968Z,48.15
2016-09-09T07:53:36.001Z,48.25
2016-09-09T07:54:36.860Z,48.15
2016-09-09T07:55:36.021Z,48.15
2016-09-09T07:56:36.024Z,48.15
2016-09-09T07:57:35.718Z,48.06
2016-09-09T07:58:35.727Z,48.15
2016-09-09T07:59:35.735Z,48.35
2016-09-09T08:00:36.056Z,48.35
2016-09-09T08:01:35.753Z,48.35
2016-09-09T08:02:35.758Z,47.96
2016-09-09T08:03:37.190Z,47.96
2016-09-09T08:04:36.088Z,48.25
2016-09-09T08:05:36.647Z,48.54
2016-09-09T08:06:36.102Z,47.96
2016-09-09T08:07:35.798Z,49.8
2016-09-09T08:08:35.806Z,52.05
2016-09-09T08:09:36.123Z,51.35
2016-09-09T08:10:36.132Z,52.34
2016-09-09T08:11:36.135Z,51.15
2016-09-09T08:12:35.830Z,49.46
2016-09-09T08:13:36.166Z,49.17
2016-09-09T08:14:37.276Z,49.87
2016-09-09T08:15:35.908Z,49.46
2016-09-09T08:16:36.767Z,49.46
2016-09-09T08:17:36.176Z,49.07
2016-09-09T08:18:35.872Z,49.46
2016-09-09T08:19:36.192Z,49.49
2016-09-09T08:20:36.198Z,49.19
2016-09-09T08:21:35.893Z,50.07
2016-09-09T08:22:36.258Z,51.86
2016-09-09T08:23:35.905Z,54.63
2016-09-09T08:24:35.910Z,55.45
2016-09-09T08:25:37.338Z,54.1
2016-09-09T08:26:35.937Z,54.77
2016-09-09T08:27:36.590Z,54.49
2016-09-09T08:28:36.244Z,54.49
2016-09-09T08:29:36.252Z,53.71
2016-09-09T08:30:36.256Z,53.25
2016-09-09T08:31:36.312Z,52.97
2016-09-09T08:32:35.966Z,54.53
2016-09-09T08:33:36.269Z,55.13
2016-09-09T08:34:35.960Z,54.97
2016-09-09T08:35:36.282Z,53.33
2016-09-09T08:36:37.310Z,51.42
2016-09-09T08:37:36.292Z,50.6
2016-09-09T08:38:37.036Z,49.56
2016-09-09T08:39:35.990Z,49.65
2016-09-09T08:40:35.995Z,51.2
2016-09-09T08:41:36.314Z,50.98
2016-09-09T08:42:36.320Z,50.02
2016-09-09T08:43:36.325Z,49.95
2016-09-09T08:44:36.333Z,49.65
2016-09-09T08:45:36.337Z,49.1
2016-09-09T08:46:36.345Z,49.07
2016-09-09T08:47:37.263Z,49.1
2016-09-09T08:48:36.045Z,49.1
2016-09-09T08:49:36.963Z,50.04
2016-09-09T08:50:36.060Z,52.14
2016-09-09T08:51:36.065Z,54.22
2016-09-09T08:52:36.383Z,54.94
2016-09-09T08:53:36.387Z,54.58
2016-09-09T08:54:36.395Z,53.91
2016-09-09T08:55:36.085Z,54.49
2016-09-09T08:56:36.088Z,56.61
2016-09-09T08:57:36.092Z,57.42
2016-09-09T08:58:37.515Z,55.98
2016-09-09T08:59:36.414Z,55.07
2016-09-09T09:00:36.868Z,54.68
2016-09-09T09:01:36.113Z,53.71
2016-09-09T09:02:36.481Z,53.83
2016-09-09T09:03:36.120Z,53.25
2016-09-09T09:04:36.440Z,53.09
2016-09-09T09:05:36.493Z,52.41
2016-09-09T09:06:36.450Z,53.74
2016-09-09T09:07:36.139Z,52.19
2016-09-09T09:08:36.146Z,50.86
2016-09-09T09:09:37.202Z,50.14
2016-09-09T09:10:36.575Z,49.37
2016-09-09T09:11:36.780Z,49.19
2016-09-09T09:12:36.485Z,49
2016-09-09T09:13:36.188Z,49.49
2016-09-09T09:14:36.497Z,50.07
2016-09-09T09:15:36.550Z,53.11
2016-09-09T09:16:36.194Z,53.64
2016-09-09T09:17:36.514Z,53.64
2016-09-09T09:18:36.520Z,52.19
2016-09-09T09:19:36.310Z,51.76
2016-09-09T09:20:37.118Z,51.35
2016-09-09T09:21:36.549Z,51.76
2016-09-09T09:22:36.643Z,53.38
2016-09-09T09:23:36.547Z,54.51
2016-09-09T09:24:36.288Z,52.39
2016-09-09T09:25:36.556Z,51.35
2016-09-09T09:26:36.251Z,50.02
2016-09-09T09:27:36.568Z,52.36
2016-09-09T09:28:36.577Z,53.64
2016-09-09T09:29:36.270Z,52.39
2016-09-09T09:30:36.588Z,52.24
2016-09-09T09:31:37.392Z,51.06
2016-09-09T09:32:36.285Z,51.08
2016-09-09T09:33:36.641Z,50.02
2016-09-09T09:34:36.608Z,50.33
2016-09-09T09:35:36.354Z,50.89
2016-09-09T09:36:36.621Z,51.2
2016-09-09T09:37:36.640Z,50.33
2016-09-09T09:38:36.323Z,50.24
2016-09-09T09:39:36.329Z,49.85
2016-09-09T09:40:36.647Z,49.19
2016-09-09T09:41:36.652Z,49.1
2016-09-09T09:42:37.259Z,49
2016-09-09T09:43:36.662Z,51.59
2016-09-09T09:44:36.661Z,52.05
2016-09-09T09:45:36.677Z,53.16
2016-09-09T09:46:36.370Z,51.73
2016-09-09T09:47:36.685Z,52.24
2016-09-09T09:48:36.381Z,53.47
2016-09-09T09:49:36.697Z,52.67
2016-09-09T09:50:36.393Z,52.12
2016-09-09T09:51:36.395Z,50.62
2016-09-09T09:52:36.404Z,50.65
2016-09-09T09:53:37.523Z,52.08
2016-09-09T09:54:36.730Z,51.01
2016-09-09T09:55:36.974Z,50.72
2016-09-09T09:56:36.793Z,53.69
2016-09-09T09:57:36.491Z,52.97
2016-09-09T09:58:36.444Z,51.25
2016-09-09T09:59:36.446Z,50.6
2016-09-09T10:00:36.770Z,50.24
2016-09-09T10:01:36.778Z,50.82
2016-09-09T10:02:36.777Z,50.14
2016-09-09T10:03:36.782Z,49.37
2016-09-09T10:04:37.690Z,49.29
2016-09-09T10:05:36.491Z,49
2016-09-09T10:06:37.044Z,50.07
2016-09-09T10:07:36.811Z,50.52
2016-09-09T10:08:36.506Z,50.14
2016-09-09T10:09:36.823Z,49.58
2016-09-09T10:10:36.518Z,49.1
2016-09-09T10:11:36.524Z,49.39
2016-09-09T10:12:36.582Z,49.68
2016-09-09T10:13:36.589Z,49
2016-09-09T10:14:36.865Z,49.97
2016-09-09T10:15:37.814Z,49.49
2016-09-09T10:16:36.872Z,49.58
2016-09-09T10:17:37.167Z,49.1
2016-09-09T10:18:36.890Z,50.94
2016-09-09T10:19:36.896Z,50.7
2016-09-09T10:20:36.896Z,51.01
2016-09-09T10:21:36.904Z,51.98
2016-09-09T10:22:36.913Z,51.86
2016-09-09T10:23:36.604Z,51.28
2016-09-09T10:24:36.611Z,52.17
2016-09-09T10:25:36.618Z,52.14
2016-09-09T10:26:37.572Z,52.82
2016-09-09T10:27:36.631Z,52.53
2016-09-09T10:28:37.188Z,51.08
2016-09-09T10:29:37.012Z,51.32
2016-09-09T10:30:36.651Z,51.68
2016-09-09T10:31:36.967Z,51.3
2016-09-09T10:32:36.972Z,50.65
2016-09-09T10:33:37.031Z,51.9
2016-09-09T10:34:36.669Z,53.41
2016-09-09T10:35:36.732Z,53.96
2016-09-09T10:36:36.733Z,53.19
2016-09-09T10:37:37.957Z,51.86
2016-09-09T10:38:36.695Z,51.3
2016-09-09T10:39:37.266Z,50.94
2016-09-09T10:40:37.021Z,51.3
2016-09-09T10:41:37.040Z,50.07
2016-09-09T10:42:36.722Z,51.32
2016-09-09T10:43:36.729Z,50.92
2016-09-09T10:44:36.736Z,50.16
2016-09-09T10:45:36.741Z,50.07
2016-09-09T10:46:36.747Z,50.07
2016-09-09T10:47:36.755Z,50.16
2016-09-09T10:48:37.563Z,49.49
2016-09-09T10:49:37.087Z,51.13
2016-09-09T10:50:37.189Z,51.62
2016-09-09T10:51:37.097Z,50.35
2016-09-09T10:52:36.788Z,51.42
2016-09-09T10:53:36.794Z,50.84
2016-09-09T10:54:36.801Z,51.13
2016-09-09T10:55:37.120Z,51.4
2016-09-09T10:56:36.814Z,52.08
2016-09-09T10:57:37.135Z,52.17
2016-09-09T10:58:37.140Z,52.85
2016-09-09T10:59:37.846Z,51.86
2016-09-09T11:00:37.149Z,51.3
2016-09-09T11:01:37.143Z,51.01
2016-09-09T11:02:36.851Z,51.42
2016-09-09T11:03:37.167Z,51.59
2016-09-09T11:04:36.862Z,52.36
2016-09-09T11:05:37.230Z,51.98
2016-09-09T11:06:36.877Z,51.68
2016-09-09T11:07:36.882Z,51.23
2016-09-09T11:08:36.888Z,50.65
2016-09-09T11:09:37.044Z,51.04
2016-09-09T11:10:37.602Z,50.94
2016-09-09T11:11:36.908Z,51.23
2016-09-09T11:12:37.237Z,50.16
2016-09-09T11:13:36.923Z,50.67
2016-09-09T11:14:37.240Z,52.39
2016-09-09T11:15:36.934Z,52.44
2016-09-09T11:16:36.947Z,51.4
2016-09-09T11:17:37.257Z,51.72
2016-09-09T11:18:37.262Z,51.98
2016-09-09T11:19:36.958Z,52.08
2016-09-09T11:20:37.326Z,52.14
2016-09-09T11:21:38.034Z,51.5
2016-09-09T11:22:36.976Z,51.2
2016-09-09T11:23:37.382Z,51.59
2016-09-09T11:24:36.990Z,51.3
2016-09-09T11:25:37.310Z,51.59
2016-09-09T11:26:37.002Z,51.5
2016-09-09T11:27:37.320Z,51.32
2016-09-09T11:28:37.334Z,51.59
2016-09-09T11:29:37.071Z,51.23
2016-09-09T11:30:37.339Z,51.01
2016-09-09T11:31:37.031Z,50.55
2016-09-09T11:32:38.141Z,51.52
2016-09-09T11:33:37.356Z,51.2
2016-09-09T11:34:37.764Z,51.98
2016-09-09T11:35:37.055Z,51.01
2016-09-09T11:36:37.375Z,50.84
2016-09-09T11:37:37.379Z,50.35
2016-09-09T11:38:37.389Z,50.94
2016-09-09T11:39:37.986Z,50.35
2016-09-09T11:40:37.138Z,51.23
2016-09-09T11:41:37.094Z,50.65
2016-09-09T11:42:37.427Z,50.16
2016-09-09T11:43:38.208Z,51.04
2016-09-09T11:44:37.426Z,50.94
2016-09-09T11:45:38.035Z,52.56
2016-09-09T11:46:37.435Z,51.76
2016-09-09T11:47:37.496Z,51.78
2016-09-09T11:48:37.448Z,52.56
2016-09-09T11:49:37.142Z,52.31
2016-09-09T11:50:37.463Z,52.05
2016-09-09T11:51:37.469Z,51.78
2016-09-09T11:52:37.473Z,51.5
2016-09-09T11:53:37.166Z,51.59
2016-09-09T11:54:37.223Z,52.27
2016-09-09T11:55:37.179Z,51.42
2016-09-09T11:56:38.445Z,51.68
2016-09-09T11:57:37.189Z,51.5
2016-09-09T11:58:37.197Z,51.98
2016-09-09T11:59:37.515Z,51.3
2016-09-09T12:00:37.518Z,52.17
2016-09-09T12:01:37.527Z,51.68
2016-09-09T12:02:37.531Z,51.32
2016-09-09T12:03:37.539Z,50.45
2016-09-09T12:04:37.606Z,50.94
2016-09-09T12:05:38.523Z,51.52
2016-09-09T12:06:37.243Z,51.9
2016-09-09T12:07:38.365Z,51.42
2016-09-09T12:08:37.258Z,51.23
2016-09-09T12:09:37.263Z,50.45
2016-09-09T12:10:37.580Z,50.35
2016-09-09T12:11:37.588Z,51.72
2016-09-09T12:12:37.594Z,52.27
2016-09-09T12:13:37.653Z,52.17
2016-09-09T12:14:37.294Z,51.72
2016-09-09T12:15:37.297Z,50.94
2016-09-09T12:16:37.307Z,50.55
2016-09-09T12:17:37.359Z,49.99
2016-09-09T12:18:38.582Z,50.07
2016-09-09T12:19:37.640Z,51.04
2016-09-09T12:20:37.333Z,51.42
2016-09-09T12:21:37.658Z,51.42
2016-09-09T12:22:37.347Z,51.04
2016-09-09T12:23:37.673Z,51.32
2016-09-09T12:24:37.668Z,51.23
2016-09-09T12:25:37.365Z,51.04
2016-09-09T12:26:37.683Z,50.74
2016-09-09T12:27:37.379Z,49.99
2016-09-09T12:28:37.746Z,50.57
2016-09-09T12:29:38.658Z,50.94
2016-09-09T12:30:37.759Z,50.84
2016-09-09T12:31:37.716Z,50.35
2016-09-09T12:32:37.722Z,50.74
2016-09-09T12:33:37.416Z,50.65
2016-09-09T12:34:37.743Z,50.07
2016-09-09T12:35:37.741Z,50.94
2016-09-09T12:36:37.434Z,51.3
2016-09-09T12:37:37.491Z,51.2
2016-09-09T12:38:37.501Z,49.87
2016-09-09T12:39:37.766Z,49.39
2016-09-09T12:40:37.483Z,50.45
2016-09-09T12:41:37.782Z,50.16
2016-09-09T12:42:37.522Z,49.68
2016-09-09T12:43:37.479Z,48.93
2016-09-09T12:44:37.487Z,49.02
2016-09-09T12:45:37.858Z,48.9
2016-09-09T12:46:37.497Z,49.51
2016-09-09T12:47:37.815Z,49.12
2016-09-09T12:48:37.824Z,49.19
2016-09-09T12:49:37.565Z,49.51
2016-09-09T12:50:37.525Z,49.58
2016-09-09T12:51:37.530Z,48.9
2016-09-09T12:52:37.535Z,49.49
2016-09-09T12:53:37.543Z,49.49
2016-09-09T12:54:37.863Z,48.93